createdAt,value
2022-11-05T00:02:34.749Z,94.72
2022-11-05T00:05:25.739Z,94.40
2022-11-05T00:08:13.998Z,94.57
2022-11-05T00:10:46.280Z,94.58
2022-11-05T00:13:36.509Z,94.28
2022-11-05T00:16:35.475Z,94.38
2022-11-05T00:19:07.572Z,94.32
2022-11-05T00:22:02.722Z,93.94
2022-11-05T00:24:52.691Z,93.80
2022-11-05T00:27:25.108Z,93.81
2022-11-05T00:29:57.395Z,93.79
2022-11-05T00:32:29.641Z,93.77
2022-11-05T00:35:01.946Z,93.83
2022-11-05T00:37:34.182Z,93.80
2022-11-05T00:40:08.593Z,93.51
2022-11-05T00:43:00.617Z,93.38
2022-11-05T00:45:33.402Z,93.40
2022-11-05T00:48:23.587Z,93.32
2022-11-05T00:50:55.884Z,93.35
2022-11-05T00:53:28.087Z,93.31
2022-11-05T00:56:00.471Z,93.23
2022-11-05T00:58:32.817Z,93.30
2022-11-05T01:01:07.142Z,93.58
2022-11-05T01:03:40.753Z,93.40
2022-11-05T01:06:16.172Z,93.28
2022-11-05T01:08:49.021Z,93.27
2022-11-05T01:11:34.123Z,93.33
2022-11-05T01:14:09.333Z,93.11
2022-11-05T01:16:42.169Z,93.26
2022-11-05T01:19:15.080Z,93.45
2022-11-05T01:21:47.186Z,93.36
2022-11-05T01:24:25.908Z,93.47
2022-11-05T01:26:58.160Z,93.38
2022-11-05T01:29:30.249Z,93.54
2022-11-05T01:32:02.320Z,93.61
2022-11-05T01:34:34.455Z,93.50
2022-11-05T01:37:08.311Z,93.50
2022-11-05T01:39:40.492Z,93.64
2022-11-05T01:42:23.060Z,93.57
2022-11-05T01:45:05.224Z,93.64
2022-11-05T01:47:47.077Z,93.87
2022-11-05T01:50:31.487Z,93.65
2022-11-05T01:53:14.162Z,93.75
2022-11-05T01:55:52.840Z,93.97
2022-11-05T01:58:29.878Z,94.14
2022-11-05T02:01:02.268Z,94.06
2022-11-05T02:03:35.114Z,93.96
2022-11-05T02:06:09.497Z,94.08
2022-11-05T02:08:53.885Z,94.02
2022-11-05T02:11:26.303Z,94.09
2022-11-05T02:13:58.409Z,93.99
2022-11-05T02:16:42.510Z,93.90
2022-11-05T02:19:43.606Z,94.21
2022-11-05T02:22:40.306Z,94.23
2022-11-05T02:25:43.546Z,94.34
2022-11-05T02:28:45.435Z,94.38
2022-11-05T02:31:24.937Z,94.54
2022-11-05T02:34:08.421Z,94.34
2022-11-05T02:36:50.087Z,94.55
2022-11-05T02:39:37.777Z,94.56
2022-11-05T02:42:20.529Z,94.79
2022-11-05T02:45:01.909Z,94.60
2022-11-05T02:47:42.911Z,94.72
2022-11-05T02:50:26.347Z,94.72
2022-11-05T02:53:04.147Z,94.64
2022-11-05T02:55:39.064Z,94.80
2022-11-05T02:58:11.801Z,94.86
2022-11-05T03:00:49.633Z,94.94
2022-11-05T03:03:32.111Z,95.06
2022-11-05T03:06:37.906Z,94.79
2022-11-05T03:09:49.957Z,94.83
2022-11-05T03:12:32.036Z,94.67
2022-11-05T03:15:16.957Z,94.74
2022-11-05T03:18:00.277Z,94.79
2022-11-05T03:20:39.042Z,94.95
2022-11-05T03:23:27.885Z,94.84
2022-11-05T03:26:05.995Z,94.81
2022-11-05T03:28:41.919Z,94.67
2022-11-05T03:31:15.594Z,94.68
2022-11-05T03:33:50.224Z,94.59
2022-11-05T03:36:26.549Z,94.73
2022-11-05T03:39:02.679Z,94.79
2022-11-05T03:41:37.111Z,94.62
2022-11-05T03:44:16.764Z,94.77
2022-11-05T03:46:53.179Z,94.77
2022-11-05T03:49:30.863Z,94.56
2022-11-05T03:52:08.584Z,94.48
2022-11-05T03:54:41.217Z,94.54
2022-11-05T03:57:19.385Z,94.90
2022-11-05T03:59:53.148Z,94.89
2022-11-05T04:02:28.501Z,94.73
2022-11-05T04:05:00.684Z,94.74
2022-11-05T04:07:50.706Z,94.83
2022-11-05T04:10:40.347Z,95.06
2022-11-05T04:13:25.411Z,95.05
2022-11-05T04:16:16.655Z,94.98
2022-11-05T04:18:48.726Z,95.29
2022-11-05T04:21:38.728Z,95.40
2022-11-05T04:24:14.788Z,95.27
2022-11-05T04:26:47.536Z,95.30
2022-11-05T04:29:37.096Z,95.24
2022-11-05T04:32:09.455Z,95.47
2022-11-05T04:34:41.594Z,95.70
2022-11-05T04:37:13.658Z,95.73
2022-11-05T04:39:45.767Z,95.77
2022-11-05T04:42:17.833Z,95.80
2022-11-05T04:44:50.313Z,95.83
2022-11-05T04:47:23.195Z,95.88
2022-11-05T04:49:55.289Z,95.95
2022-11-05T04:52:27.376Z,96.17
2022-11-05T04:55:02.379Z,96.32
2022-11-05T04:57:34.841Z,96.18
2022-11-05T05:00:09.325Z,96.25
2022-11-05T05:02:43.551Z,96.44
2022-11-05T05:05:16.197Z,96.80
2022-11-05T05:07:48.302Z,96.47
2022-11-05T05:10:20.752Z,96.79
2022-11-05T05:12:52.764Z,96.81
2022-11-05T05:15:25.536Z,96.81
2022-11-05T05:17:57.648Z,97.12
2022-11-05T05:20:47.376Z,97.05
2022-11-05T05:23:19.481Z,97.43
2022-11-05T05:25:51.529Z,97.45
2022-11-05T05:28:23.703Z,97.74
2022-11-05T05:30:59.404Z,97.53
2022-11-05T05:33:32.100Z,97.84
2022-11-05T05:36:11.111Z,97.84
2022-11-05T05:38:44.015Z,97.68
2022-11-05T05:41:16.409Z,98.00
2022-11-05T05:43:50.132Z,98.20
2022-11-05T05:46:22.131Z,98.23
2022-11-05T05:48:54.906Z,98.18
2022-11-05T05:51:27.060Z,98.53
2022-11-05T05:53:59.206Z,98.46
2022-11-05T05:56:31.366Z,98.54
2022-11-05T05:59:03.553Z,98.72
2022-11-05T06:01:35.665Z,98.59
2022-11-05T06:04:12.237Z,98.90
2022-11-05T06:06:46.909Z,98.80
2022-11-05T06:09:19.290Z,98.95
2022-11-05T06:11:51.332Z,98.89
2022-11-05T06:14:23.451Z,98.98
2022-11-05T06:16:55.487Z,99.00
2022-11-05T06:19:27.522Z,99.12
2022-11-05T06:21:59.520Z,99.16
2022-11-05T06:24:31.522Z,99.17
2022-11-05T06:27:03.613Z,99.21
2022-11-05T06:29:35.609Z,99.20
2022-11-05T06:32:07.911Z,99.27
2022-11-05T06:34:40.019Z,99.13
2022-11-05T06:37:12.666Z,99.10
2022-11-05T06:39:45.107Z,98.98
2022-11-05T06:42:19.084Z,99.09
2022-11-05T06:44:52.119Z,99.10
2022-11-05T06:47:26.802Z,98.92
2022-11-05T06:49:59.242Z,98.98
2022-11-05T06:52:31.468Z,99.12
2022-11-05T06:55:03.947Z,99.35
2022-11-05T06:57:38.185Z,99.10
2022-11-05T07:00:12.303Z,99.12
2022-11-05T07:02:47.155Z,99.34
2022-11-05T07:05:19.642Z,99.40
2022-11-05T07:07:51.607Z,99.26
2022-11-05T07:10:24.011Z,99.35
2022-11-05T07:12:56.002Z,99.28
2022-11-05T07:15:28.135Z,99.38
2022-11-05T07:18:02.161Z,99.24
2022-11-05T07:20:34.783Z,99.46
2022-11-05T07:23:09.072Z,99.36
2022-11-05T07:25:43.023Z,99.21
2022-11-05T07:28:15.745Z,99.22
2022-11-05T07:30:48.347Z,99.30
2022-11-05T07:33:20.809Z,99.23
2022-11-05T07:35:52.876Z,99.39
2022-11-05T07:38:25.312Z,99.29
2022-11-05T07:40:59.972Z,99.28
2022-11-05T07:44:30.027Z,99.35
2022-11-05T07:48:13.365Z,99.37
2022-11-05T07:50:54.074Z,99.45
2022-11-05T07:53:26.458Z,99.48
2022-11-05T07:56:05.662Z,99.53
2022-11-05T07:58:38.379Z,99.44
2022-11-05T08:10:50.018Z,99.64
2022-11-05T08:13:28.215Z,99.58
2022-11-05T08:16:02.132Z,99.52
2022-11-05T08:18:40.440Z,99.47
2022-11-05T08:21:13.371Z,99.45
2022-11-05T08:23:52.359Z,99.58
2022-11-05T08:26:24.572Z,99.55
2022-11-05T08:30:10.746Z,99.58
2022-11-05T08:32:42.848Z,99.76
2022-11-05T08:35:15.333Z,99.55
2022-11-05T08:37:56.618Z,99.68
2022-11-05T08:45:25.066Z,99.81
2022-11-05T08:48:05.081Z,99.77
2022-11-05T08:50:38.342Z,99.78
2022-11-05T08:53:18.325Z,99.75
2022-11-05T08:55:51.565Z,99.71
2022-11-05T08:58:30.944Z,99.80
2022-11-05T09:01:11.588Z,99.81
2022-11-05T09:04:00.214Z,99.98
2022-11-05T09:06:39.177Z,99.92
2022-11-05T09:09:27.213Z,99.99
2022-11-05T09:12:12.293Z,99.98
2022-11-05T09:15:35.635Z,99.98
2022-11-05T09:18:08.225Z,100.00
2022-11-05T09:20:47.312Z,100.00
2022-11-05T09:23:19.523Z,100.00
2022-11-05T09:25:58.088Z,99.98
2022-11-05T09:28:31.610Z,99.99
2022-11-05T09:31:12.022Z,100.00
2022-11-05T09:38:36.878Z,100.00
2022-11-05T09:41:21.119Z,100.00
2022-11-05T09:44:23.594Z,100.00
2022-11-05T09:50:47.754Z,100.00
2022-11-05T09:53:27.037Z,100.00
2022-11-05T09:56:01.806Z,100.00
2022-11-05T10:04:43.907Z,100.00
2022-11-05T10:11:21.640Z,100.00
2022-11-05T10:13:57.917Z,100.00
2022-11-05T10:16:33.267Z,100.00
2022-11-05T10:19:09.845Z,100.00
2022-11-05T10:22:05.451Z,100.00
2022-11-05T10:24:35.251Z,100.00
2022-11-05T10:27:08.104Z,100.00
2022-11-05T10:29:40.255Z,100.00
2022-11-05T10:37:19.558Z,100.00
2022-11-05T10:39:52.084Z,100.00
2022-11-05T10:46:36.606Z,100.00
2022-11-05T10:49:23.922Z,100.00
2022-11-05T10:51:59.300Z,100.00
2022-11-05T10:54:36.047Z,100.00
2022-11-05T10:57:30.990Z,100.00
2022-11-05T11:00:24.562Z,100.00
2022-11-05T11:02:59.517Z,100.00
2022-11-05T11:05:36.677Z,100.00
2022-11-05T11:08:24.334Z,100.00
2022-11-05T11:10:59.102Z,100.00
2022-11-05T11:13:49.847Z,100.00
2022-11-05T11:16:25.983Z,100.00
2022-11-05T11:19:00.965Z,100.00
2022-11-05T11:21:35.011Z,100.00
2022-11-05T11:24:20.080Z,100.00
2022-11-05T11:27:04.671Z,100.00
2022-11-05T11:29:42.001Z,100.00
2022-11-05T11:32:19.446Z,100.00
2022-11-05T11:34:55.106Z,100.00
2022-11-05T11:37:29.802Z,100.00
2022-11-05T11:40:04.589Z,100.00
2022-11-05T11:42:41.088Z,100.00
2022-11-05T11:45:25.040Z,100.00
2022-11-05T11:47:58.813Z,100.00
2022-11-05T11:50:39.664Z,100.00
2022-11-05T11:53:36.527Z,100.00
2022-11-05T11:56:18.083Z,100.00
2022-11-05T11:58:52.061Z,100.00
2022-11-05T12:02:03.249Z,100.00
2022-11-05T12:04:57.986Z,100.00
2022-11-05T12:07:43.512Z,100.00
2022-11-05T12:10:34.992Z,99.99
2022-11-05T12:13:31.122Z,99.92
2022-11-05T12:16:12.733Z,99.93
2022-11-05T12:18:50.124Z,99.91
2022-11-05T12:21:51.497Z,99.96
2022-11-05T12:24:56.526Z,100.00
2022-11-05T12:27:46.021Z,99.75
2022-11-05T12:30:20.611Z,99.90
2022-11-05T12:33:11.438Z,99.99
2022-11-05T12:36:00.298Z,99.85
2022-11-05T12:38:53.585Z,99.96
2022-11-05T12:41:28.948Z,99.89
2022-11-05T12:44:16.483Z,99.91
2022-11-05T12:47:12.986Z,99.69
2022-11-05T12:50:04.053Z,99.59
2022-11-05T12:53:40.608Z,99.60
2022-11-05T12:56:18.476Z,99.59
2022-11-05T12:58:56.127Z,99.59
2022-11-05T13:05:58.162Z,99.78
2022-11-05T13:12:43.710Z,99.65
2022-11-05T13:15:50.906Z,99.23
2022-11-05T13:18:29.041Z,99.31
2022-11-05T13:21:03.256Z,99.35
2022-11-05T13:23:41.079Z,99.15
2022-11-05T13:26:19.934Z,98.96
2022-11-05T13:28:56.862Z,98.92
2022-11-05T13:31:35.328Z,98.68
2022-11-05T13:34:13.286Z,98.79
2022-11-05T13:37:10.771Z,98.84
2022-11-05T13:39:49.024Z,98.71
2022-11-05T13:42:58.974Z,98.68
2022-11-05T13:46:06.236Z,98.28
2022-11-05T13:49:06.548Z,98.36
2022-11-05T13:51:53.215Z,98.42
2022-11-05T13:55:07.979Z,98.13
2022-11-05T13:58:10.509Z,98.21
2022-11-05T14:00:47.724Z,97.96
2022-11-05T14:03:22.169Z,97.67
2022-11-05T14:06:00.490Z,97.82
2022-11-05T14:08:40.585Z,97.73
2022-11-05T14:11:25.865Z,97.56
2022-11-05T14:14:02.545Z,97.61
2022-11-05T14:16:52.402Z,97.59
2022-11-05T14:19:50.597Z,97.37
2022-11-05T14:22:40.265Z,97.52
2022-11-05T14:25:55.376Z,97.48
2022-11-05T14:28:50.803Z,97.29
2022-11-05T14:31:54.308Z,97.50
2022-11-05T14:34:42.216Z,97.31
2022-11-05T14:37:39.477Z,97.60
2022-11-05T15:03:03.308Z,96.79
2022-11-05T15:19:03.159Z,96.43
2022-11-05T15:27:24.348Z,96.28
2022-11-05T15:34:26.224Z,96.39
2022-11-05T15:37:00.809Z,96.54
2022-11-05T15:43:50.935Z,96.54
2022-11-05T15:46:41.855Z,96.54
2022-11-05T15:49:14.231Z,96.43
2022-11-05T15:56:30.937Z,96.29
2022-11-05T15:59:05.470Z,96.22
2022-11-05T16:03:25.497Z,96.24
2022-11-05T16:05:59.542Z,96.35
2022-11-05T16:16:54.206Z,96.48
2022-11-05T16:28:52.737Z,96.54
2022-11-05T16:40:27.957Z,96.57
2022-11-05T16:46:55.904Z,96.95
2022-11-05T16:50:25.250Z,96.85
2022-11-05T16:52:57.304Z,96.65
2022-11-05T16:55:57.070Z,96.71
2022-11-05T16:58:29.285Z,96.77
2022-11-05T17:01:04.936Z,96.87
2022-11-05T17:03:55.351Z,96.95
2022-11-05T17:06:27.436Z,96.98
2022-11-05T17:09:05.665Z,96.93
2022-11-05T17:12:10.140Z,96.99
2022-11-05T17:14:44.790Z,97.12
2022-11-05T17:17:41.191Z,96.97
2022-11-05T17:23:41.308Z,97.19
2022-11-05T17:26:15.257Z,96.87
2022-11-05T17:33:21.894Z,97.26
2022-11-05T17:36:19.101Z,97.23
2022-11-05T17:43:23.038Z,97.28
2022-11-05T17:45:59.984Z,97.24
2022-11-05T17:50:24.084Z,97.33
2022-11-05T17:53:02.718Z,97.21
2022-11-05T17:55:34.706Z,97.32
2022-11-05T17:58:06.738Z,97.29
2022-11-05T18:09:41.746Z,97.57
2022-11-05T18:12:13.789Z,97.50
2022-11-05T18:15:58.344Z,97.50
2022-11-05T18:18:31.175Z,97.54
2022-11-05T18:26:16.489Z,97.54
2022-11-05T18:28:51.807Z,97.53
2022-11-05T18:32:12.604Z,97.42
2022-11-05T18:35:56.730Z,97.42
2022-11-05T18:38:28.859Z,97.36
2022-11-05T18:41:26.194Z,97.45
2022-11-05T18:48:26.828Z,97.42
2022-11-05T18:51:01.858Z,97.50
2022-11-05T18:54:34.846Z,97.43
2022-11-05T18:57:06.954Z,97.28
2022-11-05T19:01:06.334Z,97.38
2022-11-05T19:03:39.081Z,97.63
2022-11-05T19:06:12.419Z,97.59
2022-11-05T19:08:51.363Z,97.37
2022-11-05T19:11:26.266Z,97.49
2022-11-05T19:18:40.243Z,97.60
2022-11-05T19:21:54.520Z,97.48
2022-11-05T19:24:26.833Z,97.31
2022-11-05T19:27:15.199Z,97.26
2022-11-05T19:48:31.560Z,97.62
2022-11-05T19:59:46.908Z,97.63
2022-11-05T20:02:19.198Z,97.51
2022-11-05T20:05:18.155Z,97.38
2022-11-05T20:07:52.963Z,97.33
2022-11-05T20:11:15.384Z,97.45
2022-11-05T20:18:59.777Z,97.25
2022-11-05T20:21:33.288Z,97.18
2022-11-05T20:24:06.293Z,97.38
2022-11-05T20:31:36.868Z,96.94
2022-11-05T20:34:08.973Z,97.06
2022-11-05T20:46:39.180Z,97.01
2022-11-05T20:49:11.538Z,96.89
2022-11-05T20:56:09.546Z,96.75
2022-11-05T20:58:41.560Z,96.85
2022-11-05T21:01:16.886Z,96.78
2022-11-05T21:03:49.398Z,96.89
2022-11-05T21:06:21.442Z,96.80
2022-11-05T21:08:54.613Z,96.67
2022-11-05T21:11:26.552Z,96.60
2022-11-05T21:13:58.702Z,96.67
2022-11-05T21:16:31.021Z,96.74
2022-11-05T21:19:05.206Z,96.79
2022-11-05T21:21:41.069Z,96.70
2022-11-05T21:24:13.687Z,96.74
2022-11-05T21:26:46.438Z,96.79
2022-11-05T21:29:19.177Z,96.76
2022-11-05T21:31:51.395Z,96.53
2022-11-05T21:34:25.045Z,96.54
2022-11-05T21:36:57.371Z,96.50
2022-11-05T21:39:29.696Z,96.34
2022-11-05T21:42:01.994Z,96.50
2022-11-05T21:44:34.037Z,96.72
2022-11-05T21:47:06.213Z,96.81
2022-11-05T21:49:38.972Z,96.83
2022-11-05T21:52:32.091Z,96.75
2022-11-05T21:55:21.826Z,96.69
2022-11-05T21:58:11.585Z,96.82
2022-11-05T22:00:43.822Z,96.90
2022-11-05T22:03:15.862Z,96.87
2022-11-05T22:05:50.317Z,96.74
2022-11-05T22:08:22.828Z,96.76
2022-11-05T22:10:54.893Z,96.73
2022-11-05T22:13:26.887Z,96.59
2022-11-05T22:16:01.936Z,96.67
2022-11-05T22:18:34.028Z,96.59
2022-11-05T22:21:06.528Z,96.68
2022-11-05T22:23:38.950Z,96.65
2022-11-05T22:26:14.236Z,96.91
2022-11-05T22:28:46.305Z,96.97
2022-11-05T22:31:18.992Z,96.68
2022-11-05T22:33:51.907Z,96.60
2022-11-05T22:36:24.155Z,96.70
2022-11-05T22:38:56.363Z,96.23
2022-11-05T22:41:28.530Z,96.17
2022-11-05T22:44:00.823Z,96.25
2022-11-05T22:46:33.452Z,96.22
2022-11-05T22:49:07.570Z,96.29
2022-11-05T22:51:40.683Z,95.83
2022-11-05T22:54:13.694Z,95.85
2022-11-05T22:56:45.718Z,95.74
2022-11-05T22:59:19.013Z,95.65
2022-11-05T23:01:51.617Z,95.68
2022-11-05T23:04:24.009Z,95.33
2022-11-05T23:07:13.842Z,95.26
2022-11-05T23:10:03.947Z,95.08
2022-11-05T23:12:38.962Z,94.86
2022-11-05T23:15:32.598Z,94.69
2022-11-05T23:18:22.697Z,94.72
2022-11-05T23:21:13.257Z,95.00
2022-11-05T23:24:03.492Z,94.69
2022-11-05T23:26:54.012Z,94.76
2022-11-05T23:29:26.654Z,94.99
2022-11-05T23:32:16.521Z,95.10
2022-11-05T23:34:50.939Z,95.51
2022-11-05T23:37:42.334Z,95.50
2022-11-05T23:40:19.532Z,95.48
2022-11-05T23:43:09.463Z,95.54
2022-11-05T23:46:00.240Z,95.64
2022-11-05T23:48:40.446Z,95.37
2022-11-05T23:51:12.376Z,95.46
2022-11-05T23:53:44.557Z,95.59
2022-11-05T23:56:18.228Z,96.00
2022-11-05T23:58:52.487Z,95.70
